sensor_id;sensor_type;location;lat;lon;timestamp;pressure;altitude;pressure_sealevel;temperature;humidity
13235;BME280;6683;48.506;9.050;2024-03-17T00:02:57;98818.47;;;11.17;68.89
13235;BME280;6683;48.506;9.050;2024-03-17T00:05:58;98818.97;;;11.12;69.13
13235;BME280;6683;48.506;9.050;2024-03-17T00:09:01;98822.97;;;11.08;69.09
13235;BME280;6683;48.506;9.050;2024-03-17T00:12:09;98825.16;;;11.05;69.45
13235;BME280;6683;48.506;9.050;2024-03-17T00:15:11;98823.22;;;10.99;68.85
13235;BME280;6683;48.506;9.050;2024-03-17T00:18:16;98826.69;;;10.91;68.96
13235;BME280;6683;48.506;9.050;2024-03-17T00:21:17;98829.19;;;10.85;69.25
13235;BME280;6683;48.506;9.050;2024-03-17T00:24:21;98827.91;;;10.81;69.43
13235;BME280;6683;48.506;9.050;2024-03-17T00:27:24;98831.88;;;10.77;69.35
13235;BME280;6683;48.506;9.050;2024-03-17T00:30:26;98823.66;;;10.72;69.10
13235;BME280;6683;48.506;9.050;2024-03-17T00:33:29;98817.41;;;10.65;69.08
13235;BME280;6683;48.506;9.050;2024-03-17T00:36:30;98818.44;;;10.56;68.77
13235;BME280;6683;48.506;9.050;2024-03-17T00:39:32;98819.81;;;10.43;68.76
13235;BME280;6683;48.506;9.050;2024-03-17T00:42:35;98822.66;;;10.34;68.73
13235;BME280;6683;48.506;9.050;2024-03-17T00:45:37;98814.59;;;10.27;69.09
13235;BME280;6683;48.506;9.050;2024-03-17T00:48:39;98811.78;;;10.21;69.36
13235;BME280;6683;48.506;9.050;2024-03-17T00:51:41;98808.69;;;10.17;69.23
13235;BME280;6683;48.506;9.050;2024-03-17T00:54:47;98807.38;;;10.13;69.49
13235;BME280;6683;48.506;9.050;2024-03-17T00:57:50;98809.38;;;10.11;69.51
13235;BME280;6683;48.506;9.050;2024-03-17T01:00:53;98810.47;;;10.09;69.44
13235;BME280;6683;48.506;9.050;2024-03-17T01:03:55;98800.25;;;10.06;69.43
13235;BME280;6683;48.506;9.050;2024-03-17T01:06:57;98803.06;;;10.04;69.61
13235;BME280;6683;48.506;9.050;2024-03-17T01:10:00;98808.53;;;10.03;69.42
13235;BME280;6683;48.506;9.050;2024-03-17T01:13:02;98811.31;;;10.01;69.47
13235;BME280;6683;48.506;9.050;2024-03-17T01:16:05;98803.75;;;9.98;69.76
13235;BME280;6683;48.506;9.050;2024-03-17T01:19:08;98803.75;;;9.98;69.80
13235;BME280;6683;48.506;9.050;2024-03-17T01:22:09;98807.22;;;9.99;69.49
13235;BME280;6683;48.506;9.050;2024-03-17T01:25:11;98797.63;;;9.98;69.54
13235;BME280;6683;48.506;9.050;2024-03-17T01:28:14;98793.19;;;9.98;69.66
13235;BME280;6683;48.506;9.050;2024-03-17T01:31:16;98787.56;;;10.01;70.01
13235;BME280;6683;48.506;9.050;2024-03-17T01:34:19;98787.41;;;10.03;70.02
13235;BME280;6683;48.506;9.050;2024-03-17T01:37:20;98784.28;;;10.07;70.12
13235;BME280;6683;48.506;9.050;2024-03-17T01:40:23;98782.28;;;10.09;69.98
13235;BME280;6683;48.506;9.050;2024-03-17T01:43:26;98779.66;;;10.09;70.35
13235;BME280;6683;48.506;9.050;2024-03-17T01:46:28;98765.50;;;10.10;70.18
13235;BME280;6683;48.506;9.050;2024-03-17T01:49:31;98764.34;;;10.13;70.18
13235;BME280;6683;48.506;9.050;2024-03-17T01:52:33;98756.25;;;10.14;70.27
13235;BME280;6683;48.506;9.050;2024-03-17T01:55:37;98757.91;;;10.15;70.56
13235;BME280;6683;48.506;9.050;2024-03-17T01:58:44;98739.09;;;10.18;70.24
13235;BME280;6683;48.506;9.050;2024-03-17T02:01:46;98742.38;;;10.20;70.17
13235;BME280;6683;48.506;9.050;2024-03-17T02:04:49;98742.22;;;10.22;70.49
13235;BME280;6683;48.506;9.050;2024-03-17T02:07:51;98748.94;;;10.24;70.25
13235;BME280;6683;48.506;9.050;2024-03-17T02:10:54;98741.88;;;10.25;70.27
13235;BME280;6683;48.506;9.050;2024-03-17T02:13:56;98746.00;;;10.27;70.44
13235;BME280;6683;48.506;9.050;2024-03-17T02:16:59;98740.53;;;10.29;70.56
13235;BME280;6683;48.506;9.050;2024-03-17T02:20:02;98749.09;;;10.31;70.52
13235;BME280;6683;48.506;9.050;2024-03-17T02:23:09;98735.91;;;10.31;70.42
13235;BME280;6683;48.506;9.050;2024-03-17T02:26:11;98734.75;;;10.33;70.75
13235;BME280;6683;48.506;9.050;2024-03-17T02:29:14;98729.28;;;10.35;70.45
13235;BME280;6683;48.506;9.050;2024-03-17T02:32:15;98726.50;;;10.36;70.46
13235;BME280;6683;48.506;9.050;2024-03-17T02:35:18;98722.84;;;10.37;70.36
13235;BME280;6683;48.506;9.050;2024-03-17T02:38:22;98723.69;;;10.38;70.44
13235;BME280;6683;48.506;9.050;2024-03-17T02:41:41;98721.88;;;10.38;70.54
13235;BME280;6683;48.506;9.050;2024-03-17T02:44:44;98722.03;;;10.37;70.54
13235;BME280;6683;48.506;9.050;2024-03-17T02:47:46;98717.75;;;10.36;70.32
13235;BME280;6683;48.506;9.050;2024-03-17T02:50:50;98710.03;;;10.34;70.36
13235;BME280;6683;48.506;9.050;2024-03-17T02:53:54;98707.53;;;10.33;70.57
13235;BME280;6683;48.506;9.050;2024-03-17T02:56:56;98708.88;;;10.29;70.16
13235;BME280;6683;48.506;9.050;2024-03-17T02:59:58;98711.88;;;10.26;70.47
13235;BME280;6683;48.506;9.050;2024-03-17T03:03:01;98713.03;;;10.23;70.55
13235;BME280;6683;48.506;9.050;2024-03-17T03:06:04;98718.47;;;10.22;70.58
13235;BME280;6683;48.506;9.050;2024-03-17T03:09:11;98702.00;;;10.20;70.73
13235;BME280;6683;48.506;9.050;2024-03-17T03:12:15;98699.38;;;10.20;70.65
13235;BME280;6683;48.506;9.050;2024-03-17T03:15:17;98706.28;;;10.21;70.82
13235;BME280;6683;48.506;9.050;2024-03-17T03:18:19;98709.09;;;10.19;70.42
13235;BME280;6683;48.506;9.050;2024-03-17T03:21:22;98702.97;;;10.19;70.74
13235;BME280;6683;48.506;9.050;2024-03-17T03:24:25;98704.78;;;10.18;70.64
13235;BME280;6683;48.506;9.050;2024-03-17T03:27:28;98707.44;;;10.18;71.00
13235;BME280;6683;48.506;9.050;2024-03-17T03:30:30;98705.13;;;10.23;71.13
13235;BME280;6683;48.506;9.050;2024-03-17T03:33:32;98704.09;;;10.24;70.92
13235;BME280;6683;48.506;9.050;2024-03-17T03:36:35;98699.84;;;10.23;70.68
13235;BME280;6683;48.506;9.050;2024-03-17T03:39:39;98701.19;;;10.19;70.53
13235;BME280;6683;48.506;9.050;2024-03-17T03:42:41;98703.81;;;10.19;70.85
13235;BME280;6683;48.506;9.050;2024-03-17T03:45:43;98701.81;;;10.21;70.77
13235;BME280;6683;48.506;9.050;2024-03-17T03:48:46;98700.81;;;10.22;70.64
13235;BME280;6683;48.506;9.050;2024-03-17T03:51:48;98700.00;;;10.22;70.88
13235;BME280;6683;48.506;9.050;2024-03-17T03:54:52;98702.47;;;10.23;71.12
13235;BME280;6683;48.506;9.050;2024-03-17T03:57:55;98706.75;;;10.24;70.84
13235;BME280;6683;48.506;9.050;2024-03-17T04:00:57;98687.28;;;10.25;70.78
13235;BME280;6683;48.506;9.050;2024-03-17T04:04:00;98679.56;;;10.24;71.12
13235;BME280;6683;48.506;9.050;2024-03-17T04:07:04;98684.66;;;10.25;71.21
13235;BME280;6683;48.506;9.050;2024-03-17T04:10:09;98693.22;;;10.27;71.37
13235;BME280;6683;48.506;9.050;2024-03-17T04:13:12;98697.34;;;10.30;71.20
13235;BME280;6683;48.506;9.050;2024-03-17T04:16:15;98694.50;;;10.31;71.13
13235;BME280;6683;48.506;9.050;2024-03-17T04:19:17;98696.19;;;10.32;71.18
13235;BME280;6683;48.506;9.050;2024-03-17T04:22:20;98683.97;;;10.31;70.83
13235;BME280;6683;48.506;9.050;2024-03-17T04:25:24;98690.06;;;10.32;71.31
13235;BME280;6683;48.506;9.050;2024-03-17T04:28:26;98689.25;;;10.31;70.96
13235;BME280;6683;48.506;9.050;2024-03-17T04:31:29;98689.06;;;10.33;71.28
13235;BME280;6683;48.506;9.050;2024-03-17T04:34:31;98692.53;;;10.33;71.32
13235;BME280;6683;48.506;9.050;2024-03-17T04:37:33;98688.91;;;10.34;71.20
13235;BME280;6683;48.506;9.050;2024-03-17T04:40:41;98692.53;;;10.33;71.05
13235;BME280;6683;48.506;9.050;2024-03-17T04:43:44;98693.34;;;10.34;71.31
13235;BME280;6683;48.506;9.050;2024-03-17T04:46:47;98693.34;;;10.34;71.37
13235;BME280;6683;48.506;9.050;2024-03-17T04:49:49;98695.81;;;10.35;71.06
13235;BME280;6683;48.506;9.050;2024-03-17T04:52:51;98694.19;;;10.34;71.55
13235;BME280;6683;48.506;9.050;2024-03-17T04:56:05;98701.91;;;10.36;71.51
13235;BME280;6683;48.506;9.050;2024-03-17T04:59:08;98695.63;;;10.37;71.47
13235;BME280;6683;48.506;9.050;2024-03-17T05:02:10;98694.28;;;10.41;71.20
13235;BME280;6683;48.506;9.050;2024-03-17T05:05:12;98688.88;;;10.42;71.26
13235;BME280;6683;48.506;9.050;2024-03-17T05:08:15;98691.31;;;10.44;71.37
13235;BME280;6683;48.506;9.050;2024-03-17T05:11:18;98692.78;;;10.47;71.42
13235;BME280;6683;48.506;9.050;2024-03-17T05:14:21;98700.53;;;10.48;71.44
13235;BME280;6683;48.506;9.050;2024-03-17T05:17:23;98703.81;;;10.50;71.30
13235;BME280;6683;48.506;9.050;2024-03-17T05:20:25;98694.09;;;10.51;71.55
13235;BME280;6683;48.506;9.050;2024-03-17T05:23:28;98689.00;;;10.49;71.42
13235;BME280;6683;48.506;9.050;2024-03-17T05:26:32;98696.09;;;10.49;71.51
13235;BME280;6683;48.506;9.050;2024-03-17T05:29:34;98698.72;;;10.49;71.58
13235;BME280;6683;48.506;9.050;2024-03-17T05:32:38;98694.28;;;10.49;71.46
13235;BME280;6683;48.506;9.050;2024-03-17T05:35:41;98694.28;;;10.49;71.30
13235;BME280;6683;48.506;9.050;2024-03-17T05:38:50;98690.16;;;10.47;71.43
13235;BME280;6683;48.506;9.050;2024-03-17T05:41:53;98698.91;;;10.47;71.70
13235;BME280;6683;48.506;9.050;2024-03-17T05:44:55;98707.63;;;10.48;71.28
13235;BME280;6683;48.506;9.050;2024-03-17T05:47:58;98697.06;;;10.48;71.38
13235;BME280;6683;48.506;9.050;2024-03-17T05:51:01;98689.00;;;10.49;71.44
13235;BME280;6683;48.506;9.050;2024-03-17T05:54:04;98689.66;;;10.51;71.52
13235;BME280;6683;48.506;9.050;2024-03-17T05:57:07;98687.00;;;10.51;71.25
13235;BME280;6683;48.506;9.050;2024-03-17T06:00:13;98688.44;;;10.54;71.37
13235;BME280;6683;48.506;9.050;2024-03-17T06:03:16;98692.75;;;10.55;71.28
13235;BME280;6683;48.506;9.050;2024-03-17T06:06:18;98690.94;;;10.55;71.50
13235;BME280;6683;48.506;9.050;2024-03-17T06:09:20;98694.22;;;10.57;71.68
13235;BME280;6683;48.506;9.050;2024-03-17T06:12:25;98696.50;;;10.60;71.63
13235;BME280;6683;48.506;9.050;2024-03-17T06:15:27;98690.88;;;10.63;71.66
13235;BME280;6683;48.506;9.050;2024-03-17T06:18:29;98685.25;;;10.66;71.50
13235;BME280;6683;48.506;9.050;2024-03-17T06:21:32;98685.88;;;10.68;71.43
13235;BME280;6683;48.506;9.050;2024-03-17T06:24:34;98688.38;;;10.70;71.73
13235;BME280;6683;48.506;9.050;2024-03-17T06:27:39;98686.72;;;10.69;71.61
13235;BME280;6683;48.506;9.050;2024-03-17T06:30:44;98689.16;;;10.70;71.97
13235;BME280;6683;48.506;9.050;2024-03-17T06:33:47;98697.41;;;10.75;72.01
13235;BME280;6683;48.506;9.050;2024-03-17T06:36:50;98693.59;;;10.78;72.15
13235;BME280;6683;48.506;9.050;2024-03-17T06:39:53;98692.25;;;10.82;72.11
13235;BME280;6683;48.506;9.050;2024-03-17T06:42:57;98688.44;;;10.84;71.77
13235;BME280;6683;48.506;9.050;2024-03-17T06:46:01;98690.56;;;10.89;71.78
13235;BME280;6683;48.506;9.050;2024-03-17T06:49:03;98694.47;;;10.93;71.76
13235;BME280;6683;48.506;9.050;2024-03-17T06:52:06;98693.13;;;10.97;71.92
13235;BME280;6683;48.506;9.050;2024-03-17T06:55:08;98691.78;;;11.01;71.86
13235;BME280;6683;48.506;9.050;2024-03-17T06:58:13;98695.06;;;11.03;71.91
13235;BME280;6683;48.506;9.050;2024-03-17T07:01:21;98697.19;;;11.07;71.66
13235;BME280;6683;48.506;9.050;2024-03-17T07:04:23;98699.44;;;11.10;71.83
13235;BME280;6683;48.506;9.050;2024-03-17T07:07:27;98696.47;;;11.13;71.93
13235;BME280;6683;48.506;9.050;2024-03-17T07:10:30;98699.38;;;11.18;72.04
13235;BME280;6683;48.506;9.050;2024-03-17T07:13:34;98696.22;;;11.23;71.85
13235;BME280;6683;48.506;9.050;2024-03-17T07:16:37;98688.72;;;11.26;71.70
13235;BME280;6683;48.506;9.050;2024-03-17T07:19:40;98686.56;;;11.30;72.10
13235;BME280;6683;48.506;9.050;2024-03-17T07:22:42;98685.41;;;11.33;72.21
13235;BME280;6683;48.506;9.050;2024-03-17T07:25:52;98685.84;;;11.36;72.22
13235;BME280;6683;48.506;9.050;2024-03-17T07:28:56;98678.19;;;11.41;72.21
13235;BME280;6683;48.506;9.050;2024-03-17T07:32:02;98676.38;;;11.42;71.93
13235;BME280;6683;48.506;9.050;2024-03-17T07:35:05;98676.50;;;11.48;72.31
13235;BME280;6683;48.506;9.050;2024-03-17T07:38:09;98677.56;;;11.54;71.94
13235;BME280;6683;48.506;9.050;2024-03-17T07:41:12;98688.78;;;11.56;72.06
13235;BME280;6683;48.506;9.050;2024-03-17T07:44:15;98677.69;;;11.60;72.41
13235;BME280;6683;48.506;9.050;2024-03-17T07:47:18;98676.63;;;11.69;72.63
13235;BME280;6683;48.506;9.050;2024-03-17T07:50:20;98671.06;;;11.79;72.26
13235;BME280;6683;48.506;9.050;2024-03-17T07:53:28;98665.88;;;11.85;72.12
13235;BME280;6683;48.506;9.050;2024-03-17T07:56:30;98671.25;;;11.92;72.14
13235;BME280;6683;48.506;9.050;2024-03-17T07:59:34;98664.03;;;12.00;72.35
13235;BME280;6683;48.506;9.050;2024-03-17T08:02:37;98669.03;;;12.10;72.29
13235;BME280;6683;48.506;9.050;2024-03-17T08:05:39;98677.53;;;12.20;72.42
13235;BME280;6683;48.506;9.050;2024-03-17T08:08:43;98669.28;;;12.30;72.09
13235;BME280;6683;48.506;9.050;2024-03-17T08:11:49;98665.34;;;12.40;72.15
13235;BME280;6683;48.506;9.050;2024-03-17T08:14:52;98667.53;;;12.51;72.12
13235;BME280;6683;48.506;9.050;2024-03-17T08:17:55;98669.22;;;12.59;72.11
13235;BME280;6683;48.506;9.050;2024-03-17T08:20:57;98663.81;;;12.67;71.92
13235;BME280;6683;48.506;9.050;2024-03-17T08:24:01;98662.88;;;12.74;71.98
13235;BME280;6683;48.506;9.050;2024-03-17T08:27:04;98662.75;;;12.82;71.90
13235;BME280;6683;48.506;9.050;2024-03-17T08:30:13;98668.13;;;12.89;72.08
13235;BME280;6683;48.506;9.050;2024-03-17T08:33:18;98665.34;;;12.97;71.62
13235;BME280;6683;48.506;9.050;2024-03-17T08:36:20;98664.84;;;13.08;71.81
13235;BME280;6683;48.506;9.050;2024-03-17T08:39:23;98657.25;;;13.26;71.71
13235;BME280;6683;48.506;9.050;2024-03-17T08:42:25;98654.06;;;13.37;71.33
13235;BME280;6683;48.506;9.050;2024-03-17T08:45:29;98650.22;;;13.40;71.12
13235;BME280;6683;48.506;9.050;2024-03-17T08:48:34;98648.44;;;13.47;71.32
13235;BME280;6683;48.506;9.050;2024-03-17T08:51:36;98640.75;;;13.58;71.34
13235;BME280;6683;48.506;9.050;2024-03-17T08:54:45;98636.34;;;13.72;71.12
13235;BME280;6683;48.506;9.050;2024-03-17T08:57:48;98632.50;;;13.81;70.73
13235;BME280;6683;48.506;9.050;2024-03-17T09:00:51;98627.88;;;13.90;70.66
13235;BME280;6683;48.506;9.050;2024-03-17T09:03:53;98631.78;;;14.00;70.61
13235;BME280;6683;48.506;9.050;2024-03-17T09:06:57;98629.41;;;14.12;70.34
13235;BME280;6683;48.506;9.050;2024-03-17T09:10:01;98639.84;;;14.20;70.20
13235;BME280;6683;48.506;9.050;2024-03-17T09:13:04;98636.63;;;14.24;70.19
13235;BME280;6683;48.506;9.050;2024-03-17T09:16:08;98635.00;;;14.30;70.20
13235;BME280;6683;48.506;9.050;2024-03-17T09:19:12;98638.09;;;14.33;69.77
13235;BME280;6683;48.506;9.050;2024-03-17T09:22:14;98631.56;;;14.36;69.62
13235;BME280;6683;48.506;9.050;2024-03-17T09:25:16;98630.75;;;14.42;70.06
13235;BME280;6683;48.506;9.050;2024-03-17T09:28:18;98631.19;;;14.52;69.98
13235;BME280;6683;48.506;9.050;2024-03-17T09:31:22;98624.28;;;14.64;69.96
13235;BME280;6683;48.506;9.050;2024-03-17T09:34:24;98630.22;;;14.79;69.69
13235;BME280;6683;48.506;9.050;2024-03-17T09:37:26;98624.94;;;14.92;69.45
13235;BME280;6683;48.506;9.050;2024-03-17T09:40:29;98616.13;;;14.98;69.39
13235;BME280;6683;48.506;9.050;2024-03-17T09:43:33;98624.13;;;15.05;69.00
13235;BME280;6683;48.506;9.050;2024-03-17T09:46:37;98621.69;;;15.10;69.20
13235;BME280;6683;48.506;9.050;2024-03-17T09:49:39;98622.09;;;15.20;69.08
13235;BME280;6683;48.506;9.050;2024-03-17T09:52:45;98624.09;;;15.31;69.18
13235;BME280;6683;48.506;9.050;2024-03-17T09:55:47;98617.34;;;15.42;68.95
13235;BME280;6683;48.506;9.050;2024-03-17T09:58:51;98623.28;;;15.50;68.87
13235;BME280;6683;48.506;9.050;2024-03-17T10:01:54;98617.97;;;15.57;68.89
13235;BME280;6683;48.506;9.050;2024-03-17T10:04:57;98614.91;;;15.66;68.74
13235;BME280;6683;48.506;9.050;2024-03-17T10:07:59;98624.28;;;15.75;68.82
13235;BME280;6683;48.506;9.050;2024-03-17T10:11:02;98623.19;;;15.96;69.06
13235;BME280;6683;48.506;9.050;2024-03-17T10:14:05;98622.28;;;16.22;69.17
13235;BME280;6683;48.506;9.050;2024-03-17T10:17:10;98617.63;;;16.48;68.84
13235;BME280;6683;48.506;9.050;2024-03-17T10:20:15;98608.50;;;16.69;68.53
13235;BME280;6683;48.506;9.050;2024-03-17T10:23:17;98608.19;;;16.84;68.07
13235;BME280;6683;48.506;9.050;2024-03-17T10:26:20;98605.72;;;16.89;67.63
13235;BME280;6683;48.506;9.050;2024-03-17T10:29:24;98610.41;;;16.93;67.85
13235;BME280;6683;48.506;9.050;2024-03-17T10:32:29;98604.97;;;17.06;67.31
13235;BME280;6683;48.506;9.050;2024-03-17T10:35:35;98612.06;;;17.19;67.41
13235;BME280;6683;48.506;9.050;2024-03-17T10:38:51;98617.47;;;17.30;67.39
13235;BME280;6683;48.506;9.050;2024-03-17T10:42:00;98612.69;;;17.39;66.73
13235;BME280;6683;48.506;9.050;2024-03-17T10:45:08;98610.38;;;17.42;66.32
13235;BME280;6683;48.506;9.050;2024-03-17T10:48:19;98607.06;;;17.47;66.32
13235;BME280;6683;48.506;9.050;2024-03-17T10:51:21;98617.47;;;17.55;65.92
13235;BME280;6683;48.506;9.050;2024-03-17T10:54:26;98602.59;;;17.66;65.71
13235;BME280;6683;48.506;9.050;2024-03-17T10:57:45;98610.09;;;17.75;66.06
13235;BME280;6683;48.506;9.050;2024-03-17T11:00:50;98604.59;;;17.88;65.17
13235;BME280;6683;48.506;9.050;2024-03-17T11:03:54;98609.19;;;17.99;64.74
13235;BME280;6683;48.506;9.050;2024-03-17T11:06:56;98612.63;;;18.06;64.70
13235;BME280;6683;48.506;9.050;2024-03-17T11:10:00;98601.41;;;18.16;64.56
13235;BME280;6683;48.506;9.050;2024-03-17T11:13:04;98599.00;;;18.26;64.05
13235;BME280;6683;48.506;9.050;2024-03-17T11:16:25;98595.81;;;18.35;64.20
13235;BME280;6683;48.506;9.050;2024-03-17T11:19:29;98591.53;;;18.46;63.72
13235;BME280;6683;48.506;9.050;2024-03-17T11:22:50;98585.69;;;18.56;63.95
13235;BME280;6683;48.506;9.050;2024-03-17T11:25:56;98583.41;;;18.71;63.35
13235;BME280;6683;48.506;9.050;2024-03-17T11:28:58;98580.63;;;18.89;62.97
13235;BME280;6683;48.506;9.050;2024-03-17T11:32:24;98576.94;;;19.13;62.70
13235;BME280;6683;48.506;9.050;2024-03-17T11:35:30;98570.53;;;19.26;61.88
13235;BME280;6683;48.506;9.050;2024-03-17T11:38:50;98573.59;;;19.41;61.99
13235;BME280;6683;48.506;9.050;2024-03-17T11:45:09;98578.28;;;19.45;61.02
13235;BME280;6683;48.506;9.050;2024-03-17T11:48:17;98583.16;;;19.37;60.94
13235;BME280;6683;48.506;9.050;2024-03-17T11:51:19;98577.63;;;19.32;61.06
13235;BME280;6683;48.506;9.050;2024-03-17T11:54:23;98575.38;;;19.35;60.95
13235;BME280;6683;48.506;9.050;2024-03-17T11:57:26;98571.03;;;19.34;60.61
13235;BME280;6683;48.506;9.050;2024-03-17T12:00:29;98567.19;;;19.30;60.40
13235;BME280;6683;48.506;9.050;2024-03-17T12:03:31;98562.50;;;19.26;60.55
13235;BME280;6683;48.506;9.050;2024-03-17T12:06:34;98561.47;;;19.27;60.28
13235;BME280;6683;48.506;9.050;2024-03-17T12:09:36;98556.47;;;19.19;60.05
13235;BME280;6683;48.506;9.050;2024-03-17T12:12:37;98554.75;;;19.12;60.10
13235;BME280;6683;48.506;9.050;2024-03-17T12:15:41;98552.66;;;19.14;60.17
13235;BME280;6683;48.506;9.050;2024-03-17T12:18:43;98558.34;;;19.18;60.13
13235;BME280;6683;48.506;9.050;2024-03-17T12:21:49;98540.44;;;19.19;59.57
13235;BME280;6683;48.506;9.050;2024-03-17T12:24:54;98542.06;;;19.08;59.32
13235;BME280;6683;48.506;9.050;2024-03-17T12:27:56;98538.91;;;18.99;59.49
13235;BME280;6683;48.506;9.050;2024-03-17T12:30:59;98534.00;;;18.96;59.42
13235;BME280;6683;48.506;9.050;2024-03-17T12:34:00;98526.09;;;18.90;59.25
13235;BME280;6683;48.506;9.050;2024-03-17T12:37:05;98521.06;;;18.82;59.44
13235;BME280;6683;48.506;9.050;2024-03-17T12:40:19;98515.38;;;18.78;59.53
13235;BME280;6683;48.506;9.050;2024-03-17T12:43:25;98513.19;;;18.75;59.35
13235;BME280;6683;48.506;9.050;2024-03-17T12:46:28;98505.84;;;18.71;59.17
13235;BME280;6683;48.506;9.050;2024-03-17T12:49:32;98508.16;;;18.67;59.35
13235;BME280;6683;48.506;9.050;2024-03-17T12:52:36;98499.09;;;18.68;59.32
13235;BME280;6683;48.506;9.050;2024-03-17T12:55:40;98497.81;;;18.71;59.36
13235;BME280;6683;48.506;9.050;2024-03-17T12:59:05;98508.97;;;18.68;59.58
13235;BME280;6683;48.506;9.050;2024-03-17T13:02:25;98503.38;;;18.69;59.23
13235;BME280;6683;48.506;9.050;2024-03-17T13:05:29;98502.94;;;18.72;59.18
13235;BME280;6683;48.506;9.050;2024-03-17T13:08:34;98492.56;;;18.76;59.15
13235;BME280;6683;48.506;9.050;2024-03-17T13:11:36;98488.19;;;18.81;59.11
13235;BME280;6683;48.506;9.050;2024-03-17T13:14:39;98480.75;;;18.83;58.84
13235;BME280;6683;48.506;9.050;2024-03-17T13:17:41;98476.56;;;18.87;58.85
13235;BME280;6683;48.506;9.050;2024-03-17T13:20:43;98480.84;;;18.88;58.76
13235;BME280;6683;48.506;9.050;2024-03-17T13:23:47;98474.66;;;18.88;58.70
13235;BME280;6683;48.506;9.050;2024-03-17T13:26:49;98467.72;;;18.87;58.63
13235;BME280;6683;48.506;9.050;2024-03-17T13:29:52;98472.22;;;18.86;58.63
13235;BME280;6683;48.506;9.050;2024-03-17T13:32:55;98469.56;;;18.86;58.48
13235;BME280;6683;48.506;9.050;2024-03-17T13:35:59;98462.59;;;18.85;58.54
13235;BME280;6683;48.506;9.050;2024-03-17T13:39:02;98451.66;;;18.87;58.46
13235;BME280;6683;48.506;9.050;2024-03-17T13:42:08;98453.63;;;18.91;58.75
13235;BME280;6683;48.506;9.050;2024-03-17T13:45:11;98444.91;;;18.96;58.61
13235;BME280;6683;48.506;9.050;2024-03-17T13:48:14;98438.06;;;19.00;58.30
13235;BME280;6683;48.506;9.050;2024-03-17T13:51:16;98440.50;;;19.01;58.22
13235;BME280;6683;48.506;9.050;2024-03-17T13:54:19;98439.22;;;19.04;58.05
13235;BME280;6683;48.506;9.050;2024-03-17T13:57:22;98440.38;;;19.08;57.93
13235;BME280;6683;48.506;9.050;2024-03-17T14:00:25;98448.97;;;19.10;57.62
13235;BME280;6683;48.506;9.050;2024-03-17T14:03:27;98441.97;;;19.09;57.46
13235;BME280;6683;48.506;9.050;2024-03-17T14:06:31;98440.94;;;19.10;57.41
13235;BME280;6683;48.506;9.050;2024-03-17T14:09:35;98440.38;;;19.08;57.06
13235;BME280;6683;48.506;9.050;2024-03-17T14:12:37;98425.34;;;19.07;57.04
13235;BME280;6683;48.506;9.050;2024-03-17T14:15:40;98418.38;;;19.06;57.06
13235;BME280;6683;48.506;9.050;2024-03-17T14:18:42;98420.56;;;19.09;57.00
13235;BME280;6683;48.506;9.050;2024-03-17T14:21:44;98418.47;;;19.11;56.84
13235;BME280;6683;48.506;9.050;2024-03-17T14:24:48;98417.19;;;19.13;56.79
13235;BME280;6683;48.506;9.050;2024-03-17T14:27:50;98412.44;;;19.15;56.63
13235;BME280;6683;48.506;9.050;2024-03-17T14:30:53;98413.50;;;19.14;56.43
13235;BME280;6683;48.506;9.050;2024-03-17T14:33:55;98422.78;;;19.12;56.36
13235;BME280;6683;48.506;9.050;2024-03-17T14:36:57;98414.44;;;19.08;56.42
13235;BME280;6683;48.506;9.050;2024-03-17T14:40:01;98402.78;;;19.03;56.35
13235;BME280;6683;48.506;9.050;2024-03-17T14:43:07;98401.88;;;18.97;56.35
13235;BME280;6683;48.506;9.050;2024-03-17T14:46:09;98395.63;;;18.92;56.39
13235;BME280;6683;48.506;9.050;2024-03-17T14:49:14;98399.56;;;18.89;56.39
13235;BME280;6683;48.506;9.050;2024-03-17T14:52:16;98400.25;;;18.85;56.55
13235;BME280;6683;48.506;9.050;2024-03-17T14:55:21;98391.06;;;18.81;56.67
13235;BME280;6683;48.506;9.050;2024-03-17T14:58:24;98395.03;;;18.78;56.66
13235;BME280;6683;48.506;9.050;2024-03-17T15:01:26;98392.22;;;18.73;56.66
13235;BME280;6683;48.506;9.050;2024-03-17T15:04:30;98388.63;;;18.68;56.58
13235;BME280;6683;48.506;9.050;2024-03-17T15:07:33;98388.53;;;18.63;56.48
13235;BME280;6683;48.506;9.050;2024-03-17T15:10:36;98401.31;;;18.61;56.67
13235;BME280;6683;48.506;9.050;2024-03-17T15:13:38;98397.47;;;18.57;56.72
13235;BME280;6683;48.506;9.050;2024-03-17T15:16:43;98392.84;;;18.52;56.70
13235;BME280;6683;48.506;9.050;2024-03-17T15:19:46;98400.72;;;18.47;56.66
13235;BME280;6683;48.506;9.050;2024-03-17T15:22:49;98395.81;;;18.44;56.75
13235;BME280;6683;48.506;9.050;2024-03-17T15:25:53;98405.31;;;18.40;56.61
13235;BME280;6683;48.506;9.050;2024-03-17T15:29:00;98402.31;;;18.36;56.69
13235;BME280;6683;48.506;9.050;2024-03-17T15:32:04;98396.84;;;18.31;56.43
13235;BME280;6683;48.506;9.050;2024-03-17T15:35:07;98393.81;;;18.28;56.63
13235;BME280;6683;48.506;9.050;2024-03-17T15:38:10;98385.22;;;18.26;56.55
13235;BME280;6683;48.506;9.050;2024-03-17T15:41:14;98380.94;;;18.25;56.50
13235;BME280;6683;48.506;9.050;2024-03-17T15:44:16;98377.69;;;18.23;56.47
13235;BME280;6683;48.506;9.050;2024-03-17T15:47:18;98376.28;;;18.20;56.45
13235;BME280;6683;48.506;9.050;2024-03-17T15:50:21;98386.38;;;18.18;56.47
13235;BME280;6683;48.506;9.050;2024-03-17T15:53:23;98387.41;;;18.17;56.38
13235;BME280;6683;48.506;9.050;2024-03-17T15:56:28;98381.47;;;18.15;56.58
13235;BME280;6683;48.506;9.050;2024-03-17T15:59:30;98377.19;;;18.14;56.45
13235;BME280;6683;48.506;9.050;2024-03-17T16:02:33;98384.38;;;18.14;56.57
13235;BME280;6683;48.506;9.050;2024-03-17T16:05:35;98382.75;;;18.13;56.46
13235;BME280;6683;48.506;9.050;2024-03-17T16:08:40;98384.25;;;18.09;56.53
13235;BME280;6683;48.506;9.050;2024-03-17T16:11:46;98383.91;;;18.05;56.67
13235;BME280;6683;48.506;9.050;2024-03-17T16:14:49;98373.66;;;18.02;56.72
13235;BME280;6683;48.506;9.050;2024-03-17T16:17:53;98371.91;;;17.96;56.92
13235;BME280;6683;48.506;9.050;2024-03-17T16:21:00;98367.50;;;17.90;57.23
13235;BME280;6683;48.506;9.050;2024-03-17T16:24:10;98365.28;;;17.87;57.43
13235;BME280;6683;48.506;9.050;2024-03-17T16:27:14;98367.38;;;17.85;57.32
13235;BME280;6683;48.506;9.050;2024-03-17T16:30:16;98360.03;;;17.81;57.33